createdAt,value
2022-09-28T00:01:19.556Z,15.54
2022-09-28T00:04:25.587Z,15.53
2022-09-28T00:07:32.088Z,15.52
2022-09-28T00:10:38.274Z,15.51
2022-09-28T00:13:43.022Z,15.50
2022-09-28T00:16:49.804Z,15.46
2022-09-28T00:19:58.094Z,15.48
2022-09-28T00:23:04.186Z,15.47
2022-09-28T00:26:10.260Z,15.45
2022-09-28T00:29:19.946Z,15.45
2022-09-28T00:32:41.889Z,15.40
2022-09-28T00:35:56.478Z,15.41
2022-09-28T00:39:08.109Z,15.38
2022-09-28T00:42:24.226Z,15.37
2022-09-28T00:45:31.885Z,15.33
2022-09-28T00:48:51.362Z,15.30
2022-09-28T00:51:59.353Z,15.25
2022-09-28T00:55:19.052Z,15.20
2022-09-28T00:58:33.733Z,15.11
2022-09-28T01:01:46.852Z,15.03
2022-09-28T01:04:58.484Z,14.97
2022-09-28T01:08:07.739Z,14.94
2022-09-28T01:11:13.863Z,14.90
2022-09-28T01:14:19.257Z,14.87
2022-09-28T01:17:32.306Z,14.80
2022-09-28T01:20:55.926Z,14.75
2022-09-28T01:24:23.209Z,14.69
2022-09-28T01:27:34.257Z,14.64
2022-09-28T01:30:47.318Z,14.59
2022-09-28T01:33:57.988Z,14.54
2022-09-28T01:37:11.165Z,14.51
2022-09-28T01:40:18.728Z,14.49
2022-09-28T01:43:28.231Z,14.48
2022-09-28T01:46:39.410Z,14.44
2022-09-28T01:49:50.258Z,14.41
2022-09-28T01:53:00.638Z,14.37
2022-09-28T01:56:12.551Z,14.35
2022-09-28T01:59:21.540Z,14.34
2022-09-28T02:02:33.608Z,14.32
2022-09-28T02:05:43.475Z,14.31
2022-09-28T02:08:55.148Z,14.31
2022-09-28T02:12:07.247Z,14.30
2022-09-28T02:15:19.497Z,14.28
2022-09-28T02:18:26.093Z,14.24
2022-09-28T02:21:39.578Z,14.22
2022-09-28T02:24:55.289Z,14.22
2022-09-28T02:28:03.270Z,14.24
2022-09-28T02:31:09.560Z,14.24
2022-09-28T02:34:15.621Z,14.25
2022-09-28T02:37:21.908Z,14.24
2022-09-28T02:40:30.034Z,14.23
2022-09-28T02:43:50.742Z,14.21
2022-09-28T02:47:05.986Z,14.22
2022-09-28T02:50:20.569Z,14.23
2022-09-28T02:53:46.559Z,14.23
2022-09-28T02:57:03.635Z,14.22
2022-09-28T03:00:16.102Z,14.22
2022-09-28T03:03:30.644Z,14.22
2022-09-28T03:06:42.715Z,14.23
2022-09-28T03:09:56.934Z,14.22
2022-09-28T03:13:05.078Z,14.22
2022-09-28T03:16:16.890Z,14.21
2022-09-28T03:19:28.233Z,14.21
2022-09-28T03:22:34.286Z,14.17
2022-09-28T03:25:40.867Z,14.15
2022-09-28T03:28:46.910Z,14.11
2022-09-28T03:31:55.091Z,14.09
2022-09-28T03:35:01.290Z,14.06
2022-09-28T03:38:07.390Z,14.03
2022-09-28T03:41:13.583Z,13.98
2022-09-28T03:44:18.058Z,13.91
2022-09-28T03:47:24.142Z,13.79
2022-09-28T03:50:30.280Z,13.72
2022-09-28T03:53:36.752Z,13.65
2022-09-28T03:56:42.977Z,13.61
2022-09-28T03:59:47.438Z,13.57
2022-09-28T04:02:54.157Z,13.51
2022-09-28T04:06:00.468Z,13.49
2022-09-28T04:09:04.920Z,13.46
2022-09-28T04:12:11.110Z,13.41
2022-09-28T04:15:15.585Z,13.40
2022-09-28T04:18:22.136Z,13.36
2022-09-28T04:21:28.634Z,13.33
2022-09-28T04:24:34.722Z,13.27
2022-09-28T04:28:12.976Z,13.22
2022-09-28T04:31:21.739Z,13.16
2022-09-28T04:34:33.140Z,13.12
2022-09-28T04:37:41.584Z,13.07
2022-09-28T04:40:49.968Z,13.03
2022-09-28T04:43:56.286Z,12.99
2022-09-28T04:47:05.182Z,12.93
2022-09-28T04:50:12.413Z,12.86
2022-09-28T04:53:18.559Z,12.83
2022-09-28T04:56:24.630Z,12.80
2022-09-28T04:59:30.835Z,12.80
2022-09-28T05:02:37.023Z,12.81
2022-09-28T05:05:49.074Z,12.82
2022-09-28T05:08:57.638Z,12.81
2022-09-28T05:12:04.461Z,12.80
2022-09-28T05:15:11.866Z,12.81
2022-09-28T05:18:18.022Z,12.81
2022-09-28T05:21:24.881Z,12.80
2022-09-28T05:24:31.189Z,12.76
2022-09-28T05:27:35.683Z,12.75
2022-09-28T05:30:41.839Z,12.72
2022-09-28T05:33:47.989Z,12.74
2022-09-28T05:36:54.093Z,12.78
2022-09-28T05:40:00.219Z,12.81
2022-09-28T05:43:06.385Z,12.84
2022-09-28T05:46:12.685Z,12.86
2022-09-28T05:49:17.451Z,12.88
2022-09-28T05:52:23.862Z,12.88
2022-09-28T05:55:30.219Z,12.95
2022-09-28T05:58:36.436Z,12.99
2022-09-28T06:01:42.609Z,13.02
2022-09-28T06:04:49.572Z,13.04
2022-09-28T06:07:56.339Z,13.03
2022-09-28T06:11:04.045Z,13.06
2022-09-28T06:14:10.540Z,13.08
2022-09-28T06:17:16.747Z,13.12
2022-09-28T06:20:23.043Z,13.14
2022-09-28T06:23:27.596Z,13.15
2022-09-28T06:26:33.920Z,13.16
2022-09-28T06:29:39.953Z,13.24
2022-09-28T06:32:46.380Z,13.29
2022-09-28T06:35:52.510Z,13.34
2022-09-28T06:38:58.621Z,13.36
2022-09-28T06:42:05.196Z,13.36
2022-09-28T06:45:12.746Z,13.40
2022-09-28T06:48:18.898Z,13.43
2022-09-28T06:51:25.229Z,13.44
2022-09-28T06:54:29.774Z,13.48
2022-09-28T06:57:35.829Z,13.46
2022-09-28T07:00:42.753Z,13.48
2022-09-28T07:03:52.488Z,13.48
2022-09-28T07:07:01.139Z,13.49
2022-09-28T07:10:10.355Z,13.50
2022-09-28T07:13:44.555Z,13.48
2022-09-28T07:17:09.680Z,13.48
2022-09-28T07:20:18.672Z,13.49
2022-09-28T07:23:26.570Z,13.53
2022-09-28T07:26:33.899Z,13.58
2022-09-28T07:29:40.015Z,13.65
2022-09-28T07:32:48.516Z,13.72
2022-09-28T07:35:56.452Z,13.81
2022-09-28T07:39:02.656Z,13.88
2022-09-28T07:42:07.582Z,13.96
2022-09-28T07:45:13.935Z,14.04
2022-09-28T07:48:20.514Z,14.21
2022-09-28T07:51:26.608Z,14.34
2022-09-28T07:54:32.760Z,14.47
2022-09-28T07:57:40.013Z,14.58
2022-09-28T08:00:48.573Z,14.69
2022-09-28T08:03:56.452Z,14.79
2022-09-28T08:07:03.225Z,14.88
2022-09-28T08:10:10.673Z,14.96
2022-09-28T08:13:18.743Z,15.03
2022-09-28T08:16:25.560Z,15.05
2022-09-28T08:19:52.447Z,15.08
2022-09-28T08:23:03.767Z,15.12
2022-09-28T08:26:15.190Z,15.19
2022-09-28T08:29:21.663Z,15.22
2022-09-28T08:32:26.402Z,15.20
2022-09-28T08:35:32.582Z,15.19
2022-09-28T08:38:37.060Z,15.05
2022-09-28T08:41:50.933Z,14.48
2022-09-28T08:45:00.331Z,14.18
2022-09-28T08:48:30.781Z,14.47
2022-09-28T08:51:41.851Z,14.76
2022-09-28T08:54:53.227Z,14.93
2022-09-28T08:58:04.295Z,15.10
2022-09-28T09:01:16.706Z,15.24
2022-09-28T09:04:22.998Z,15.38
2022-09-28T09:07:41.259Z,15.46
2022-09-28T09:10:53.551Z,15.09
2022-09-28T09:14:35.146Z,14.91
2022-09-28T09:17:51.185Z,15.19
2022-09-28T09:21:02.425Z,14.98
2022-09-28T09:24:24.941Z,14.81
2022-09-28T09:27:43.701Z,14.79
2022-09-28T09:31:00.898Z,14.78
2022-09-28T09:34:41.059Z,14.72
2022-09-28T09:38:00.734Z,14.57
2022-09-28T09:41:17.848Z,14.68
2022-09-28T09:44:46.469Z,15.30
2022-09-28T09:47:57.699Z,15.76
2022-09-28T09:51:14.436Z,15.58
2022-09-28T09:54:28.469Z,15.35
2022-09-28T09:57:41.994Z,15.19
2022-09-28T10:00:51.694Z,15.05
2022-09-28T10:04:00.178Z,14.96
2022-09-28T10:07:10.746Z,14.93
2022-09-28T10:10:21.703Z,15.05
2022-09-28T10:13:29.337Z,15.58
2022-09-28T10:16:37.243Z,16.09
2022-09-28T10:19:43.988Z,16.40
2022-09-28T10:22:51.318Z,16.20
2022-09-28T10:26:01.866Z,15.94
2022-09-28T10:29:14.893Z,15.78
2022-09-28T10:32:26.513Z,15.78
2022-09-28T10:35:42.289Z,16.13
2022-09-28T10:38:50.774Z,15.99
2022-09-28T10:41:58.794Z,15.73
2022-09-28T10:45:20.981Z,15.55
2022-09-28T10:48:28.408Z,15.41
2022-09-28T10:51:49.758Z,15.44
2022-09-28T10:54:57.103Z,15.97
2022-09-28T10:58:18.913Z,16.22
2022-09-28T11:01:28.617Z,15.94
2022-09-28T11:04:41.438Z,15.70
2022-09-28T11:07:52.016Z,15.56
2022-09-28T11:11:10.754Z,15.44
2022-09-28T11:14:27.438Z,15.37
2022-09-28T11:17:38.792Z,15.34
2022-09-28T11:20:45.606Z,15.35
2022-09-28T11:24:06.022Z,15.38
2022-09-28T11:27:23.724Z,15.62
2022-09-28T11:30:32.976Z,16.34
2022-09-28T11:33:41.463Z,16.91
2022-09-28T11:37:08.366Z,16.94
2022-09-28T11:40:29.131Z,16.92
2022-09-28T11:43:49.429Z,17.01
2022-09-28T11:47:05.503Z,17.14
2022-09-28T11:50:24.448Z,17.23
2022-09-28T11:53:38.260Z,17.29
2022-09-28T11:56:48.995Z,17.41
2022-09-28T12:00:03.070Z,17.51
2022-09-28T12:03:15.491Z,17.53
2022-09-28T12:06:28.764Z,17.57
2022-09-28T12:09:39.735Z,17.53
2022-09-28T12:12:51.154Z,17.45
2022-09-28T12:16:27.577Z,17.47
2022-09-28T12:19:33.482Z,17.54
2022-09-28T12:22:44.497Z,17.67
2022-09-28T12:25:54.958Z,17.81
2022-09-28T12:29:06.650Z,17.96
2022-09-28T12:32:24.962Z,18.11
2022-09-28T12:35:42.263Z,18.28
2022-09-28T12:39:18.012Z,18.45
2022-09-28T12:42:53.220Z,18.57
2022-09-28T12:46:14.323Z,18.67
2022-09-28T12:50:37.162Z,18.79
2022-09-28T12:53:41.681Z,18.91
2022-09-28T12:57:00.976Z,19.00
2022-09-28T13:00:11.853Z,19.07
2022-09-28T13:03:36.362Z,19.16
2022-09-28T13:06:55.062Z,19.26
2022-09-28T13:10:14.570Z,19.33
2022-09-28T13:13:38.305Z,19.39
2022-09-28T13:16:56.167Z,19.48
2022-09-28T13:20:18.951Z,19.54
2022-09-28T13:23:28.940Z,19.61
2022-09-28T13:26:39.594Z,19.65
2022-09-28T13:29:46.351Z,19.70
2022-09-28T13:32:54.363Z,19.73
2022-09-28T13:36:03.438Z,19.75
2022-09-28T13:39:56.701Z,19.76
2022-09-28T13:43:23.271Z,19.77
2022-09-28T13:46:41.085Z,19.74
2022-09-28T13:49:58.010Z,19.72
2022-09-28T13:53:16.707Z,19.73
2022-09-28T13:56:36.122Z,19.74
2022-09-28T13:59:51.257Z,19.69
2022-09-28T14:03:05.069Z,19.58
2022-09-28T14:06:25.579Z,19.46
2022-09-28T14:09:45.776Z,19.31
2022-09-28T14:12:52.634Z,19.16
2022-09-28T14:16:26.910Z,19.01
2022-09-28T14:19:35.302Z,18.80
2022-09-28T14:22:53.965Z,18.64
2022-09-28T14:26:18.408Z,18.49
2022-09-28T14:29:30.144Z,18.34
2022-09-28T14:32:37.738Z,18.21
2022-09-28T14:35:48.313Z,18.08
2022-09-28T14:39:13.227Z,17.96
2022-09-28T14:42:23.194Z,17.84
2022-09-28T14:45:44.603Z,17.72
2022-09-28T14:48:52.775Z,17.58
2022-09-28T14:52:04.938Z,17.44
2022-09-28T14:55:30.613Z,17.32
2022-09-28T14:58:39.639Z,17.19
2022-09-28T15:01:51.846Z,17.07
2022-09-28T15:05:02.039Z,16.96
2022-09-28T15:08:08.343Z,16.84
2022-09-28T15:11:20.291Z,16.74
2022-09-28T15:14:28.102Z,16.63
2022-09-28T15:17:39.954Z,16.52
2022-09-28T15:20:49.834Z,16.41
2022-09-28T15:23:55.941Z,16.41
2022-09-28T15:27:03.142Z,16.83
2022-09-28T15:30:24.203Z,17.24
2022-09-28T15:33:49.121Z,17.52
2022-09-28T15:36:56.450Z,17.74
2022-09-28T15:40:04.242Z,17.89
2022-09-28T15:43:24.940Z,17.92
2022-09-28T15:46:31.834Z,17.47
2022-09-28T15:49:43.137Z,17.10
2022-09-28T15:52:57.551Z,16.81
2022-09-28T15:56:10.327Z,16.68
2022-09-28T15:59:26.718Z,17.06
2022-09-28T16:02:33.077Z,17.38
2022-09-28T16:05:47.253Z,17.56
2022-09-28T16:08:53.852Z,17.42
2022-09-28T16:12:00.264Z,16.96
2022-09-28T16:15:20.474Z,16.60
2022-09-28T16:18:27.972Z,16.33
2022-09-28T16:21:44.817Z,16.11
2022-09-28T16:24:58.266Z,15.94
2022-09-28T16:28:05.414Z,15.79
2022-09-28T16:31:28.472Z,15.67
2022-09-28T16:34:34.590Z,15.54
2022-09-28T16:37:42.799Z,15.43
2022-09-28T16:40:50.689Z,15.33
2022-09-28T16:44:00.953Z,15.24
2022-09-28T16:47:07.701Z,15.24
2022-09-28T16:50:17.460Z,15.69
2022-09-28T16:53:41.239Z,16.13
2022-09-28T16:56:47.470Z,16.44
2022-09-28T16:59:53.365Z,16.55
2022-09-28T17:02:59.593Z,16.20
2022-09-28T17:06:07.719Z,15.84
2022-09-28T17:09:15.207Z,15.58
2022-09-28T17:12:24.990Z,15.40
2022-09-28T17:15:31.179Z,15.34
2022-09-28T17:18:39.204Z,15.74
2022-09-28T17:21:45.377Z,16.11
2022-09-28T17:24:50.192Z,16.34
2022-09-28T17:27:58.398Z,16.49
2022-09-28T17:31:05.801Z,16.64
2022-09-28T17:34:12.857Z,16.75
2022-09-28T17:37:18.978Z,16.85
2022-09-28T17:40:24.168Z,16.83
2022-09-28T17:43:30.344Z,16.37
2022-09-28T17:46:35.872Z,15.96
2022-09-28T17:49:45.841Z,15.65
2022-09-28T17:52:53.454Z,15.40
2022-09-28T17:55:59.563Z,15.29
2022-09-28T17:59:05.082Z,15.64
2022-09-28T18:02:12.755Z,15.97
2022-09-28T18:05:19.885Z,16.23
2022-09-28T18:08:26.176Z,16.39
2022-09-28T18:11:32.834Z,16.52
2022-09-28T18:14:40.191Z,16.52
2022-09-28T18:17:46.347Z,16.07
2022-09-28T18:20:50.790Z,15.65
2022-09-28T18:23:56.543Z,15.34
2022-09-28T18:27:02.500Z,15.19
2022-09-28T18:30:10.342Z,15.52
2022-09-28T18:33:16.610Z,15.85
2022-09-28T18:36:22.365Z,16.07
2022-09-28T18:39:28.518Z,16.20
2022-09-28T18:42:35.771Z,16.29
2022-09-28T18:45:42.227Z,16.36
2022-09-28T18:48:48.582Z,16.46
2022-09-28T18:51:54.432Z,16.54
2022-09-28T18:55:00.288Z,16.60
2022-09-28T18:58:06.035Z,16.62
2022-09-28T19:01:32.262Z,16.66
2022-09-28T19:04:38.898Z,16.72
2022-09-28T19:07:45.263Z,16.77
2022-09-28T19:10:51.523Z,16.81
2022-09-28T19:13:58.498Z,16.83
2022-09-28T19:17:04.749Z,16.86
2022-09-28T19:20:11.798Z,16.88
2022-09-28T19:23:18.018Z,16.86
2022-09-28T19:26:26.209Z,16.87
2022-09-28T19:29:32.550Z,16.88
2022-09-28T19:32:39.101Z,16.88
2022-09-28T19:35:45.367Z,16.89
2022-09-28T19:38:52.859Z,16.90
2022-09-28T19:41:59.955Z,16.93
2022-09-28T19:45:07.638Z,16.83
2022-09-28T19:48:13.887Z,16.32
2022-09-28T19:51:20.245Z,15.83
2022-09-28T19:54:32.051Z,15.46
2022-09-28T19:57:40.602Z,15.29
2022-09-28T20:00:46.859Z,15.62
2022-09-28T20:03:53.184Z,15.90
2022-09-28T20:06:59.458Z,16.10
2022-09-28T20:10:06.280Z,16.22
2022-09-28T20:13:12.617Z,16.32
2022-09-28T20:16:24.525Z,16.40
2022-09-28T20:19:31.020Z,16.45
2022-09-28T20:22:37.361Z,16.50
2022-09-28T20:25:43.605Z,16.55
2022-09-28T20:28:50.040Z,16.59
2022-09-28T20:31:56.786Z,16.63
2022-09-28T20:35:03.050Z,16.66
2022-09-28T20:38:09.317Z,16.68
2022-09-28T20:41:17.750Z,16.71
2022-09-28T20:44:24.073Z,16.72
2022-09-28T20:47:30.392Z,16.73
2022-09-28T20:50:37.128Z,16.73
2022-09-28T20:53:44.888Z,16.74
2022-09-28T20:56:51.159Z,16.72
2022-09-28T20:59:57.818Z,16.69
2022-09-28T21:03:04.101Z,16.68
2022-09-28T21:06:12.428Z,16.70
2022-09-28T21:09:19.104Z,16.71
2022-09-28T21:12:26.182Z,16.71
2022-09-28T21:15:32.520Z,16.68
2022-09-28T21:18:38.778Z,16.65
2022-09-28T21:21:44.966Z,16.61
2022-09-28T21:24:49.529Z,16.56
2022-09-28T21:27:56.674Z,16.52
2022-09-28T21:31:03.824Z,16.52
2022-09-28T21:34:13.317Z,16.49
2022-09-28T21:37:19.561Z,16.45
2022-09-28T21:40:24.647Z,16.42
2022-09-28T21:43:32.482Z,16.39
2022-09-28T21:46:39.797Z,16.40
2022-09-28T21:49:46.259Z,16.39
2022-09-28T21:52:53.437Z,16.37
2022-09-28T21:56:00.741Z,16.31
2022-09-28T21:59:06.971Z,16.22
2022-09-28T22:02:13.639Z,16.11
2022-09-28T22:05:21.080Z,16.08
2022-09-28T22:08:27.563Z,16.10
2022-09-28T22:11:34.160Z,16.13
2022-09-28T22:14:40.463Z,16.15
2022-09-28T22:17:46.780Z,16.16
2022-09-28T22:21:01.531Z,16.15
2022-09-28T22:24:09.039Z,16.18
2022-09-28T22:27:15.815Z,16.20
2022-09-28T22:30:22.037Z,16.23
2022-09-28T22:33:28.910Z,16.24
2022-09-28T22:36:35.844Z,16.26
2022-09-28T22:39:42.126Z,16.28
2022-09-28T22:42:48.352Z,16.30
2022-09-28T22:46:04.756Z,16.31
2022-09-28T22:49:13.202Z,16.33
2022-09-28T22:52:19.413Z,16.33
2022-09-28T22:55:24.066Z,16.28
2022-09-28T22:58:30.757Z,16.22
2022-09-28T23:01:37.431Z,16.23
2022-09-28T23:04:43.637Z,16.25
2022-09-28T23:07:48.466Z,16.26
2022-09-28T23:10:55.382Z,16.24
2022-09-28T23:14:02.766Z,16.23
2022-09-28T23:17:09.003Z,16.19
2022-09-28T23:20:15.356Z,16.16
2022-09-28T23:23:21.587Z,16.13
2022-09-28T23:26:30.454Z,16.13
2022-09-28T23:29:36.726Z,16.08
2022-09-28T23:32:43.188Z,16.05
2022-09-28T23:35:49.521Z,16.04
2022-09-28T23:38:56.257Z,16.07
2022-09-28T23:42:02.830Z,16.07
2022-09-28T23:45:10.831Z,16.08
2022-09-28T23:48:17.170Z,16.09
2022-09-28T23:51:23.490Z,16.10
2022-09-28T23:54:29.786Z,16.10
2022-09-28T23:57:36.199Z,16.08
